Time;durP1;ratioP1;P1;durP2;ratioP2;P2;SDS_P1;SDS_P2;PMS_P1;PMS_P2;Temp;Humidity;BMP_temperature;BMP_pressure;BME280_temperature;BME280_humidity;BME280_pressure;Samples;Min_cycle;Max_cycle;Signal;HPM_P1;HPM_P2
2023/05/05 00:02:14;;;;;;;5.60;1.70;;;;;;;8.01;77.59;102100.72;5006334;28;20220;-46
2023/05/05 00:04:39;;;;;;;3.40;1.40;;;;;;;8.10;78.20;102094.44;5009829;28;20176;-47
2023/05/05 00:07:05;;;;;;;6.57;1.90;;;;;;;7.93;79.23;102099.88;5016886;28;20172;-44
2023/05/05 00:09:30;;;;;;;6.63;2.08;;;;;;;7.93;80.66;102099.88;5012688;28;20177;-46
2023/05/05 00:11:55;;;;;;;7.80;2.55;;;;;;;7.99;82.27;102103.41;5006638;28;20271;-47
2023/05/05 00:14:21;;;;;;;5.90;2.75;;;;;;;7.98;84.39;102100.72;5004267;28;20631;-44
2023/05/05 00:16:46;;;;;;;8.50;3.83;;;;;;;7.95;86.41;102111.44;5017834;28;20184;-44
2023/05/05 00:19:12;;;;;;;11.50;4.60;;;;;;;7.96;88.53;102113.19;5011588;28;20247;-42
2023/05/05 00:21:37;;;;;;;15.15;4.28;;;;;;;7.84;90.83;102101.72;5006022;28;20192;-44
2023/05/05 00:24:03;;;;;;;11.45;4.47;;;;;;;7.86;92.43;102095.50;5008238;28;20181;-44
2023/05/05 00:26:29;;;;;;;13.60;4.90;;;;;;;7.80;94.16;102107.97;5014806;28;20176;-44
2023/05/05 00:28:54;;;;;;;9.90;4.85;;;;;;;7.75;95.75;102088.44;5008228;28;20202;-41
2023/05/05 00:31:20;;;;;;;17.30;5.63;;;;;;;7.77;96.71;102091.09;5016795;28;20260;-43
2023/05/05 00:33:45;;;;;;;12.40;5.40;;;;;;;7.72;98.29;102093.81;5013050;28;20238;-42
2023/05/05 00:36:11;;;;;;;15.68;5.60;;;;;;;7.72;99.43;102091.13;5015930;28;20608;-42
2023/05/05 00:38:37;;;;;;;10.90;5.10;;;;;;;7.73;100.00;102106.22;5011114;28;20273;-42
2023/05/05 00:41:02;;;;;;;14.85;5.45;;;;;;;7.68;100.00;102085.84;5000893;28;20740;-41
2023/05/05 00:43:28;;;;;;;13.15;4.85;;;;;;;7.61;100.00;102091.19;5015868;28;20183;-45
2023/05/05 00:46:00;;;;;;;12.77;4.97;;;;;;;7.66;100.00;102083.16;4996640;28;20213;-45
2023/05/05 00:48:29;;;;;;;11.88;4.68;;;;;;;7.56;100.00;102084.09;5017642;28;20539;-45
2023/05/05 00:50:55;;;;;;;11.95;5.22;;;;;;;7.57;100.00;102084.09;5009807;28;20189;-46
2023/05/05 00:53:20;;;;;;;12.15;5.18;;;;;;;7.50;100.00;102090.38;5023560;28;20206;-46
2023/05/05 00:55:46;;;;;;;12.05;5.25;;;;;;;7.53;100.00;102076.13;5024857;28;20189;-45
2023/05/05 00:58:12;;;;;;;13.50;5.43;;;;;;;7.53;100.00;102076.13;5014802;28;20176;-45
2023/05/05 01:00:39;;;;;;;12.10;5.32;;;;;;;7.49;100.00;102093.03;5003937;28;20177;-47
2023/05/05 01:03:04;;;;;;;12.95;5.43;;;;;;;7.42;100.00;102087.72;5017028;28;20339;-46
2023/05/05 01:05:57;;;;;;;10.40;5.65;;;;;;;7.48;100.00;102077.91;5017223;28;20241;-47
2023/05/05 01:08:34;;;;;;;11.60;5.90;;;;;;;7.49;100.00;102077.03;5014163;28;20191;-45
2023/05/05 01:11:09;;;;;;;15.02;6.20;;;;;;;7.44;100.00;102079.75;5019335;28;20181;-46
2023/05/05 01:13:52;;;;;;;13.95;6.18;;;;;;;7.43;100.00;102081.53;5017745;28;20289;-46
2023/05/05 01:16:31;;;;;;;12.68;6.00;;;;;;;7.45;100.00;102083.28;5010743;28;20180;-45
2023/05/05 01:19:38;;;;;;;12.43;5.85;;;;;;;7.43;100.00;102076.19;5004801;28;20208;-44
2023/05/05 01:22:07;;;;;;;12.93;6.28;;;;;;;7.47;100.00;102073.50;5018608;28;20195;-46
2023/05/05 01:25:10;;;;;;;14.63;5.80;;;;;;;7.41;100.00;102077.06;5015689;28;20755;-45
2023/05/05 01:27:37;;;;;;;8.70;5.00;;;;;;;7.36;100.00;102062.88;5005378;28;20184;-44
2023/05/05 01:30:24;;;;;;;14.23;5.80;;;;;;;7.33;100.00;102061.13;5005450;28;20240;-46
2023/05/05 01:32:55;;;;;;;17.48;5.65;;;;;;;7.35;100.00;102067.34;5010641;28;20192;-44
2023/05/05 01:35:32;;;;;;;12.27;5.63;;;;;;;7.36;100.00;102063.75;4993229;28;20193;-45
2023/05/05 01:38:28;;;;;;;16.20;6.68;;;;;;;7.33;100.00;102065.59;5008148;28;20271;-45
2023/05/05 01:41:09;;;;;;;14.30;5.50;;;;;;;7.40;100.00;102065.53;5006417;28;20204;-45
2023/05/05 01:43:37;;;;;;;12.07;5.65;;;;;;;7.33;100.00;102063.78;5014354;28;20624;-44
2023/05/05 01:46:05;;;;;;;15.30;5.35;;;;;;;7.38;100.00;102071.75;5008885;28;20207;-44
2023/05/05 01:48:32;;;;;;;16.85;5.75;;;;;;;7.36;100.00;102062.88;5014411;28;20244;-44
2023/05/05 01:51:00;;;;;;;12.73;5.60;;;;;;;7.39;100.00;102063.75;5017043;28;20397;-46
2023/05/05 01:53:27;;;;;;;14.55;5.55;;;;;;;7.29;100.00;102066.47;5033230;28;20293;-45
2023/05/05 01:55:53;;;;;;;14.00;5.00;;;;;;;7.36;100.00;102060.22;5007612;28;20177;-43
2023/05/05 01:58:22;;;;;;;14.48;6.10;;;;;;;7.33;100.00;102053.13;5013339;28;20200;-45
2023/05/05 02:00:49;;;;;;;12.95;5.40;;;;;;;7.34;100.00;102064.66;5016554;28;20193;-45
2023/05/05 02:03:17;;;;;;;17.73;6.00;;;;;;;7.36;100.00;102057.56;5013030;28;20180;-45
2023/05/05 02:05:46;;;;;;;13.23;5.57;;;;;;;7.30;100.00;102046.91;5005373;28;20195;-45
2023/05/05 02:08:12;;;;;;;13.27;4.82;;;;;;;7.28;100.00;102046.94;5001547;28;20180;-44
2023/05/05 02:10:41;;;;;;;16.17;5.55;;;;;;;7.29;100.00;102059.38;5015528;28;20244;-45
2023/05/05 02:13:11;;;;;;;17.50;5.15;;;;;;;7.29;100.00;102054.03;5015723;28;20680;-45
2023/05/05 02:15:38;;;;;;;15.70;6.05;;;;;;;7.32;100.00;102047.78;5001483;28;20184;-44
2023/05/05 02:18:07;;;;;;;16.15;5.45;;;;;;;7.22;100.00;102070.97;5015897;28;20562;-45
2023/05/05 02:20:36;;;;;;;13.70;6.32;;;;;;;7.31;100.00;102062.91;5010821;28;20252;-46
2023/05/05 02:23:04;;;;;;;15.55;5.80;;;;;;;7.20;100.00;102057.63;5009392;28;20247;-46
2023/05/05 02:25:37;;;;;;;17.30;5.80;;;;;;;7.21;100.00;102048.75;5015561;28;20299;-45
2023/05/05 02:28:04;;;;;;;11.18;6.03;;;;;;;7.29;100.00;102056.69;5018366;28;20202;-44
2023/05/05 02:30:33;;;;;;;13.50;6.50;;;;;;;7.36;100.00;102066.44;5015125;28;20256;-47
2023/05/05 02:33:08;;;;;;;13.90;5.40;;;;;;;7.38;100.00;102050.44;5010233;28;20239;-47
2023/05/05 02:35:37;;;;;;;13.75;5.82;;;;;;;7.26;100.00;102059.41;5009449;28;20207;-46
2023/05/05 02:38:11;;;;;;;14.90;6.07;;;;;;;7.26;100.00;102056.72;4997560;28;21257;-46
2023/05/05 02:40:42;;;;;;;13.35;6.15;;;;;;;7.26;100.00;102043.41;5019091;28;20191;-43
2023/05/05 02:43:13;;;;;;;12.02;5.50;;;;;;;7.32;100.00;102050.47;5015592;28;20184;-46
2023/05/05 02:45:39;;;;;;;12.93;5.35;;;;;;;7.26;100.00;102045.16;5025715;28;20267;-46
2023/05/05 02:48:05;;;;;;;16.98;5.90;;;;;;;7.29;100.00;102046.03;5004203;28;20676;-45
2023/05/05 02:50:35;;;;;;;13.50;5.55;;;;;;;7.28;100.00;102041.63;5005397;28;20190;-45
2023/05/05 02:53:11;;;;;;;11.85;5.03;;;;;;;7.23;100.00;102038.94;5011334;28;20691;-45
2023/05/05 02:55:49;;;;;;;14.20;5.25;;;;;;;7.29;100.00;102040.69;5017919;28;20703;-46
2023/05/05 02:58:37;;;;;;;11.63;5.55;;;;;;;7.22;100.00;102030.97;5012515;28;20191;-47
2023/05/05 03:01:17;;;;;;;14.02;4.82;;;;;;;7.30;100.00;102033.59;5008372;28;20205;-47
2023/05/05 03:03:58;;;;;;;14.80;5.45;;;;;;;7.27;100.00;102029.16;5011189;28;20280;-47
2023/05/05 03:06:26;;;;;;;18.00;5.57;;;;;;;7.32;100.00;102027.34;4991763;28;20179;-45
2023/05/05 03:09:33;;;;;;;12.05;5.63;;;;;;;7.25;100.00;102020.28;5012246;28;20176;-46
2023/05/05 03:12:05;;;;;;;16.20;5.20;;;;;;;7.30;100.00;102030.91;4929837;29;20234;-45
2023/05/05 03:14:43;;;;;;;10.80;5.40;;;;;;;7.22;100.00;102028.31;4921662;29;20729;-48
2023/05/05 03:17:13;;;;;;;12.18;5.15;;;;;;;7.29;100.00;102034.50;4975510;28;20271;-45
2023/05/05 03:19:43;;;;;;;12.57;5.30;;;;;;;7.23;100.00;102025.63;5000525;28;20849;-47
2023/05/05 03:22:09;;;;;;;11.38;4.93;;;;;;;7.20;100.00;102019.44;5009906;28;20209;-44
2023/05/05 03:24:36;;;;;;;16.40;5.72;;;;;;;7.26;100.00;102014.06;5014980;28;20633;-46
2023/05/05 03:27:06;;;;;;;11.57;5.60;;;;;;;7.29;100.00;102024.72;5015151;28;20603;-45
2023/05/05 03:29:35;;;;;;;15.65;5.85;;;;;;;7.23;100.00;102024.72;5009514;28;20169;-44
2023/05/05 03:32:03;;;;;;;17.75;5.68;;;;;;;7.18;100.00;102022.09;5006251;28;20691;-43
2023/05/05 03:34:29;;;;;;;16.17;5.30;;;;;;;7.28;100.00;101996.28;5004319;28;20193;-44
2023/05/05 03:36:56;;;;;;;13.48;5.40;;;;;;;7.18;100.00;102008.78;5014944;28;20193;-49
2023/05/05 03:39:21;;;;;;;16.08;6.18;;;;;;;7.29;100.00;102002.50;5011098;28;20239;-44
2023/05/05 03:41:48;;;;;;;11.52;5.10;;;;;;;7.21;100.00;101997.19;5013270;28;20202;-48
2023/05/05 03:44:15;;;;;;;13.82;5.30;;;;;;;7.22;100.00;102005.19;5012925;28;20196;-45
2023/05/05 03:46:40;;;;;;;12.30;4.93;;;;;;;7.18;100.00;101991.91;5003293;28;20191;-47
2023/05/05 03:49:10;;;;;;;15.10;4.88;;;;;;;7.23;100.00;101998.97;5010915;28;20558;-44
2023/05/05 03:51:37;;;;;;;13.15;5.13;;;;;;;7.12;100.00;101994.59;5018746;28;20204;-45
2023/05/05 03:54:03;;;;;;;15.35;5.47;;;;;;;7.15;100.00;101997.22;5021736;28;20694;-46
2023/05/05 03:56:29;;;;;;;16.15;4.93;;;;;;;7.15;100.00;101994.56;5014906;28;20648;-48
2023/05/05 03:58:54;;;;;;;11.43;4.65;;;;;;;7.16;100.00;101994.56;5006088;28;20326;-45
2023/05/05 04:01:20;;;;;;;14.30;4.97;;;;;;;7.15;100.00;101989.22;5000604;28;20197;-44
2023/05/05 04:03:45;;;;;;;13.85;4.63;;;;;;;7.15;100.00;101971.47;5008609;28;20628;-44
2023/05/05 04:06:11;;;;;;;14.30;4.90;;;;;;;7.15;100.00;101970.56;5011836;28;20207;-48
2023/05/05 04:08:37;;;;;;;11.20;4.88;;;;;;;7.13;100.00;101985.72;5018364;28;20168;-44
2023/05/05 04:11:03;;;;;;;19.02;5.30;;;;;;;7.18;100.00;102002.56;5018677;28;20176;-49
2023/05/05 04:13:31;;;;;;;16.65;4.65;;;;;;;7.16;100.00;101989.22;5011760;28;20202;-45
2023/05/05 04:15:58;;;;;;;13.30;4.30;;;;;;;7.17;100.00;101995.44;5017191;28;20180;-44
2023/05/05 04:18:24;;;;;;;9.57;4.57;;;;;;;7.16;100.00;102010.56;5009846;28;20223;-46
2023/05/05 04:20:50;;;;;;;11.68;4.72;;;;;;;7.16;100.00;101996.34;5010955;28;20212;-45
2023/05/05 04:23:15;;;;;;;11.00;4.25;;;;;;;7.15;100.00;101990.16;5014441;28;20659;-44
2023/05/05 04:25:42;;;;;;;14.10;4.57;;;;;;;7.25;100.00;101998.97;5018448;28;20219;-49
2023/05/05 04:28:08;;;;;;;13.00;4.22;;;;;;;7.21;100.00;101995.44;5016383;28;20226;-48
2023/05/05 04:30:33;;;;;;;13.85;4.10;;;;;;;7.19;100.00;101996.31;5020334;28;20208;-44
2023/05/05 04:33:00;;;;;;;11.73;4.07;;;;;;;7.20;100.00;101992.78;5014857;28;20651;-51
2023/05/05 04:35:26;;;;;;;10.20;4.38;;;;;;;7.21;100.00;101999.88;5014979;28;20185;-43
2023/05/05 04:37:53;;;;;;;11.48;4.20;;;;;;;7.28;100.00;102006.97;5015803;28;20214;-46
2023/05/05 04:40:19;;;;;;;10.95;4.15;;;;;;;7.26;100.00;101987.41;5015411;28;20574;-45
2023/05/05 04:42:45;;;;;;;10.38;4.30;;;;;;;7.32;100.00;101991.81;5014099;28;20276;-45
2023/05/05 04:45:11;;;;;;;7.82;3.50;;;;;;;7.25;100.00;101996.28;5008738;28;20609;-45
2023/05/05 04:47:39;;;;;;;11.68;3.55;;;;;;;7.29;100.00;102000.72;5018579;28;20218;-43
2023/05/05 04:50:06;;;;;;;10.48;4.10;;;;;;;7.27;100.00;101996.28;5016901;28;20176;-46
2023/05/05 04:52:32;;;;;;;11.35;3.30;;;;;;;7.27;100.00;101999.84;5012477;28;20200;-45
2023/05/05 04:54:58;;;;;;;7.00;3.40;;;;;;;7.35;100.00;102010.47;5016915;28;20208;-45
2023/05/05 04:57:24;;;;;;;6.80;3.22;;;;;;;7.39;100.00;102001.53;5006337;28;20179;-44
2023/05/05 04:59:51;;;;;;;10.35;3.30;;;;;;;7.37;100.00;102009.56;5003039;28;20204;-44
2023/05/05 05:02:17;;;;;;;11.13;3.30;;;;;;;7.29;100.00;101990.06;5018066;28;20521;-45
2023/05/05 05:04:42;;;;;;;9.57;2.92;;;;;;;7.29;100.00;101994.50;5016372;28;20182;-45
2023/05/05 05:07:08;;;;;;;13.48;2.80;;;;;;;7.31;100.00;101996.25;5003210;28;20691;-47
2023/05/05 05:09:34;;;;;;;8.63;2.90;;;;;;;7.32;100.00;102002.47;5001977;28;20177;-48
2023/05/05 05:12:01;;;;;;;8.32;2.67;;;;;;;7.33;100.00;102006.94;5005016;28;20212;-47
2023/05/05 05:14:28;;;;;;;5.13;2.58;;;;;;;7.38;100.00;102002.44;5016452;28;20695;-43
2023/05/05 05:16:54;;;;;;;7.78;3.13;;;;;;;7.34;100.00;101993.56;5011641;28;20236;-43
2023/05/05 05:19:21;;;;;;;9.75;3.15;;;;;;;7.43;100.00;102001.53;5012451;28;20169;-46
2023/05/05 05:21:47;;;;;;;6.55;2.25;;;;;;;7.46;100.00;102010.41;4998715;28;20259;-44
2023/05/05 05:24:12;;;;;;;7.03;2.28;;;;;;;7.53;100.00;102006.78;5013890;28;20181;-44
2023/05/05 05:26:38;;;;;;;7.63;2.17;;;;;;;7.64;100.00;102007.59;5021066;28;20172;-42
2023/05/05 05:29:04;;;;;;;9.90;2.30;;;;;;;7.61;100.00;101983.63;5012625;28;20176;-47
2023/05/05 05:31:30;;;;;;;8.77;2.72;;;;;;;7.61;100.00;102004.97;5018934;28;20201;-45
2023/05/05 05:33:55;;;;;;;11.48;2.00;;;;;;;7.56;99.78;101988.97;5014559;28;20249;-45
2023/05/05 05:36:21;;;;;;;10.88;2.33;;;;;;;7.52;98.35;102003.25;4999785;28;20181;-43
2023/05/05 05:38:47;;;;;;;7.60;2.20;;;;;;;7.60;96.78;102003.19;5009552;28;20169;-47
2023/05/05 05:41:13;;;;;;;6.00;1.98;;;;;;;7.67;95.27;101996.91;5014445;28;20557;-46
2023/05/05 05:43:40;;;;;;;8.68;2.35;;;;;;;7.82;94.14;101988.78;5011757;28;20264;-47
2023/05/05 05:46:06;;;;;;;8.18;2.13;;;;;;;7.75;92.65;101980.84;5013608;28;20189;-41
2023/05/05 05:48:32;;;;;;;14.65;2.65;;;;;;;8.00;91.70;101986.84;5013081;28;20494;-44
2023/05/05 05:50:58;;;;;;;6.65;1.73;;;;;;;8.22;90.37;101971.50;4994668;28;20201;-45
2023/05/05 05:53:24;;;;;;;8.40;2.30;;;;;;;8.34;89.36;101966.06;5015975;28;20231;-45
2023/05/05 05:55:51;;;;;;;11.95;2.42;;;;;;;8.53;88.03;101971.25;5014183;28;20191;-44
2023/05/05 05:58:18;;;;;;;11.35;2.10;;;;;;;8.52;86.75;101996.16;5006368;28;20180;-44
2023/05/05 06:00:44;;;;;;;8.57;2.58;;;;;;;8.78;85.51;101964.69;5012913;28;20678;-44
2023/05/05 06:03:10;;;;;;;9.25;1.90;;;;;;;8.81;84.47;101969.09;5013619;28;20528;-44
2023/05/05 06:05:37;;;;;;;4.32;2.00;;;;;;;8.95;83.49;101952.91;5012979;28;20338;-43
2023/05/05 06:08:03;;;;;;;5.90;2.22;;;;;;;9.15;82.80;101952.63;5010616;28;20189;-43
2023/05/05 06:10:30;;;;;;;6.68;1.70;;;;;;;9.17;81.84;101951.69;5008018;28;20174;-46
2023/05/05 06:13:03;;;;;;;6.43;2.00;;;;;;;9.02;81.05;101952.78;5002851;28;20223;-43
2023/05/05 06:15:30;;;;;;;9.30;2.33;;;;;;;9.18;80.71;101965.94;5010887;28;20262;-44
2023/05/05 06:17:56;;;;;;;14.38;2.20;;;;;;;9.13;80.10;101941.06;5023104;22;20180;-44
2023/05/05 06:20:22;;;;;;;6.32;2.30;;;;;;;9.16;79.96;101965.97;5010018;28;20204;-48
2023/05/05 06:22:48;;;;;;;5.72;1.88;;;;;;;9.31;79.60;101956.81;5012663;28;20216;-51
2023/05/05 06:25:13;;;;;;;16.50;3.67;;;;;;;9.24;79.00;101958.72;4995987;28;20184;-51
2023/05/05 06:27:39;;;;;;;6.18;1.90;;;;;;;9.30;79.19;101960.44;5011729;28;20556;-49
2023/05/05 06:30:06;;;;;;;3.53;1.88;;;;;;;9.36;79.17;101951.41;4991099;28;20176;-48
2023/05/05 06:36:18;;;;;;;9.82;1.75;;;;;;;9.80;77.73;101948.03;5007494;28;20219;-44
2023/05/05 06:38:43;;;;;;;7.28;1.95;;;;;;;9.39;77.27;101946.91;5016018;28;20216;-45
2023/05/05 06:41:09;;;;;;;8.50;2.25;;;;;;;9.41;77.10;101955.78;4992294;28;20284;-44
2023/05/05 06:43:35;;;;;;;8.88;2.15;;;;;;;9.18;77.07;101944.53;5009742;28;20235;-45
2023/05/05 06:46:05;;;;;;;7.60;2.20;;;;;;;9.21;77.00;101942.72;5009760;28;20185;-45
2023/05/05 06:48:31;;;;;;;8.20;2.25;;;;;;;9.42;76.51;101929.91;5011962;28;20176;-46
2023/05/05 06:50:56;;;;;;;5.00;1.80;;;;;;;9.18;76.00;101933.84;4975639;28;20275;-44
2023/05/05 06:53:22;;;;;;;14.85;2.78;;;;;;;9.04;76.06;101931.38;4991544;28;20200;-44
2023/05/05 06:55:47;;;;;;;8.55;2.33;;;;;;;9.12;76.15;101940.19;5008560;28;20628;-44
2023/05/05 06:58:13;;;;;;;9.10;1.98;;;;;;;9.25;76.07;101920.38;5009163;28;20267;-48
2023/05/05 07:00:39;;;;;;;8.18;2.13;;;;;;;9.52;76.09;101904.81;5008954;28;20208;-48
2023/05/05 07:03:05;;;;;;;13.32;2.70;;;;;;;9.57;75.48;101915.41;5008412;28;20204;-48
2023/05/05 07:05:31;;;;;;;6.47;2.10;;;;;;;9.27;75.31;101915.00;5008656;28;20327;-48
2023/05/05 07:07:57;;;;;;;8.85;2.30;;;;;;;8.93;75.20;101918.16;5007136;28;20180;-50
2023/05/05 07:10:23;;;;;;;11.07;2.40;;;;;;;8.93;75.59;101926.19;4991009;28;20184;-49
2023/05/05 07:12:50;;;;;;;8.73;2.08;;;;;;;8.96;75.80;101939.50;5008458;28;20200;-49
2023/05/05 07:15:16;;;;;;;8.27;2.60;;;;;;;9.13;76.26;101941.06;5008430;28;20180;-48
2023/05/05 07:17:42;;;;;;;7.50;2.05;;;;;;;9.15;76.50;101941.94;5007989;28;20188;-47
2023/05/05 07:20:08;;;;;;;7.60;2.40;;;;;;;9.15;76.13;101937.47;5008043;28;20604;-48
2023/05/05 07:22:34;;;;;;;7.95;2.20;;;;;;;9.41;76.18;101937.06;5008496;28;20262;-48
2023/05/05 07:25:01;;;;;;;7.25;2.00;;;;;;;9.27;75.91;101960.44;4989993;28;20351;-49
2023/05/05 07:27:26;;;;;;;10.13;1.92;;;;;;;9.29;75.97;101961.31;5008187;28;20235;-49
2023/05/05 07:29:52;;;;;;;8.15;2.08;;;;;;;9.20;75.91;101954.31;5008676;28;20204;-47
2023/05/05 07:32:17;;;;;;;8.18;1.92;;;;;;;9.27;75.97;101966.72;5008537;28;20576;-49
2023/05/05 07:34:43;;;;;;;9.82;2.15;;;;;;;9.05;75.98;101970.56;5008654;28;20208;-47
2023/05/05 07:37:09;;;;;;;7.40;2.40;;;;;;;9.37;76.04;101982.63;5008238;28;20191;-48
2023/05/05 07:39:34;;;;;;;5.30;2.38;;;;;;;9.68;75.68;101972.31;5010047;28;20184;-48
2023/05/05 07:42:00;;;;;;;10.57;2.25;;;;;;;9.72;75.48;101952.63;5012666;28;20200;-48
2023/05/05 07:44:26;;;;;;;4.40;2.00;;;;;;;9.91;75.01;101969.28;5012563;28;20244;-47
2023/05/05 07:46:52;;;;;;;8.15;2.22;;;;;;;10.15;74.75;101957.25;4994588;28;20192;-47
2023/05/05 07:49:18;;;;;;;6.22;2.30;;;;;;;10.52;74.06;101961.94;5011800;28;20188;-47
2023/05/05 07:51:44;;;;;;;11.65;2.58;;;;;;;10.04;73.71;101969.94;5012105;28;20212;-47
2023/05/05 07:54:11;;;;;;;6.43;2.20;;;;;;;9.75;73.97;101959.72;5012590;28;20269;-46
2023/05/05 07:56:36;;;;;;;6.22;2.10;;;;;;;9.57;74.32;101971.59;5010929;28;20659;-49
2023/05/05 07:59:02;;;;;;;6.95;2.33;;;;;;;9.85;74.82;101972.03;5012511;28;20176;-47
2023/05/05 08:01:27;;;;;;;8.35;2.45;;;;;;;9.93;74.63;101966.53;5012461;28;20196;-47
2023/05/05 08:03:53;;;;;;;7.15;2.53;;;;;;;10.29;74.35;101949.84;5011611;28;20670;-49
2023/05/05 08:06:23;;;;;;;8.50;2.42;;;;;;;10.19;74.10;101950.91;5012123;28;20624;-48
2023/05/05 08:08:50;;;;;;;10.15;1.98;;;;;;;10.26;73.71;101938.28;4994502;28;20706;-46
2023/05/05 08:11:16;;;;;;;10.52;2.08;;;;;;;10.44;73.38;101956.72;5012510;28;20197;-47
2023/05/05 08:13:42;;;;;;;6.07;2.22;;;;;;;10.29;73.08;101973.06;5013686;28;20295;-46
2023/05/05 08:16:07;;;;;;;9.10;2.25;;;;;;;10.43;72.67;101964.75;4996088;28;20654;-46
2023/05/05 08:18:36;;;;;;;10.23;2.47;;;;;;;10.52;72.66;101968.16;5013773;28;20181;-48
2023/05/05 08:21:06;;;;;;;8.50;2.30;;;;;;;10.28;72.41;102009.66;5014007;28;20251;-46
2023/05/05 08:23:32;;;;;;;6.07;2.03;;;;;;;10.78;72.47;101969.44;5014531;28;20168;-45
2023/05/05 08:25:58;;;;;;;6.53;2.20;;;;;;;10.89;72.22;101990.66;5013957;28;20295;-46
2023/05/05 08:28:23;;;;;;;9.10;2.28;;;;;;;10.68;72.08;101989.31;5013387;28;20610;-47
2023/05/05 08:30:49;;;;;;;9.32;2.33;;;;;;;11.00;71.72;101988.66;5013409;28;20165;-49
2023/05/05 08:33:15;;;;;;;9.60;2.00;;;;;;;11.14;71.63;101970.44;5013075;28;20701;-44
2023/05/05 08:35:44;;;;;;;6.60;2.05;;;;;;;11.14;71.05;101977.59;5012274;28;20180;-45
2023/05/05 08:38:11;;;;;;;7.15;2.30;;;;;;;11.40;71.30;101984.19;5013503;28;20173;-49
2023/05/05 08:40:38;;;;;;;10.07;2.45;;;;;;;11.39;70.89;101986.00;5013105;28;20587;-44
2023/05/05 08:43:04;;;;;;;9.35;2.50;;;;;;;10.88;71.16;101991.56;4994677;28;20280;-50
2023/05/05 08:45:30;;;;;;;8.25;2.63;;;;;;;10.42;71.90;101992.47;4995480;28;20188;-48
2023/05/05 08:47:57;;;;;;;7.82;2.17;;;;;;;10.40;72.47;101997.88;5012999;28;20283;-44
2023/05/05 08:50:27;;;;;;;8.07;2.28;;;;;;;10.90;72.59;102013.88;5012378;28;20176;-43
2023/05/05 08:52:58;;;;;;;7.43;2.88;;;;;;;10.96;71.87;101994.09;5005966;28;20590;-45
2023/05/05 08:55:25;;;;;;;6.85;2.40;;;;;;;10.94;71.72;102015.59;5011677;28;20573;-45
2023/05/05 08:57:53;;;;;;;4.82;2.05;;;;;;;11.07;71.34;102001.00;4993725;28;20573;-46
2023/05/05 09:00:19;;;;;;;7.03;2.03;;;;;;;11.37;71.03;101990.50;5011012;28;20192;-43
2023/05/05 09:02:46;;;;;;;4.97;1.90;;;;;;;11.13;71.54;102003.56;5011298;28;20691;-44
2023/05/05 09:05:11;;;;;;;9.45;2.45;;;;;;;11.19;70.90;102007.88;4990857;28;20256;-42
2023/05/05 09:07:40;;;;;;;11.23;2.42;;;;;;;11.33;70.69;101986.13;5007529;28;20631;-45
2023/05/05 09:10:08;;;;;;;7.22;2.55;;;;;;;12.16;70.11;101994.88;5011055;28;20212;-45
2023/05/05 09:12:34;;;;;;;4.10;1.90;;;;;;;11.83;69.28;101977.75;5008008;28;20204;-47
2023/05/05 09:15:02;;;;;;;6.57;2.22;;;;;;;11.67;69.19;101962.03;5010758;28;20658;-45
2023/05/05 09:17:28;;;;;;;9.48;2.63;;;;;;;11.79;69.09;101968.06;4992115;28;20223;-43
2023/05/05 09:20:03;;;;;;;6.72;2.35;;;;;;;11.92;68.76;101961.47;5010812;28;20193;-43
2023/05/05 09:22:39;;;;;;;7.88;2.13;;;;;;;11.54;69.08;101982.03;4992505;28;20307;-45
2023/05/05 09:25:07;;;;;;;6.50;2.22;;;;;;;11.67;69.01;101970.09;5010289;28;20255;-46
2023/05/05 09:27:38;;;;;;;3.80;1.70;;;;;;;11.83;68.63;101970.63;5009882;28;20703;-47
2023/05/05 09:30:08;;;;;;;6.18;2.88;;;;;;;11.77;68.71;101976.13;5010814;28;20196;-45
2023/05/05 09:32:53;;;;;;;5.43;2.03;;;;;;;11.57;68.67;101990.03;5010015;28;20241;-45
2023/05/05 09:35:20;;;;;;;4.25;1.63;;;;;;;11.78;69.32;102001.19;5010228;28;20805;-45
2023/05/05 09:37:46;;;;;;;8.50;2.45;;;;;;;12.14;68.38;101992.22;4992858;28;20195;-44
2023/05/05 09:40:14;;;;;;;6.15;2.30;;;;;;;12.29;68.13;101984.69;5010598;28;20180;-43
2023/05/05 09:42:40;;;;;;;10.82;2.50;;;;;;;12.32;67.34;101987.28;5010827;28;20196;-43
2023/05/05 09:45:26;;;;;;;12.13;2.50;;;;;;;12.04;66.93;101977.25;5010101;28;20674;-43
2023/05/05 09:47:51;;;;;;;9.75;2.85;;;;;;;11.86;67.21;101977.72;5008126;28;20212;-46
2023/05/05 09:50:17;;;;;;;7.93;2.83;;;;;;;12.43;66.65;101950.25;5009370;28;20180;-44
2023/05/05 09:53:02;;;;;;;5.75;1.90;;;;;;;11.64;66.75;101954.06;4992100;28;20205;-46
2023/05/05 09:55:30;;;;;;;11.75;2.45;;;;;;;11.55;67.10;101963.22;4992686;28;20273;-45
2023/05/05 09:57:55;;;;;;;7.78;1.98;;;;;;;11.90;67.12;101983.00;5009154;28;20192;-44
2023/05/05 10:00:21;;;;;;;6.32;2.47;;;;;;;11.53;66.68;101943.59;5008701;28;20172;-43
2023/05/05 10:02:46;;;;;;;6.00;2.40;;;;;;;11.51;67.34;101971.41;5009394;28;20215;-45
2023/05/05 10:05:14;;;;;;;8.50;2.00;;;;;;;11.60;67.44;101968.47;4992530;28;20192;-44
2023/05/05 10:07:42;;;;;;;6.88;2.70;;;;;;;11.89;67.89;101973.16;5009472;28;20258;-45
2023/05/05 10:10:18;;;;;;;12.55;2.33;;;;;;;11.13;67.56;101957.06;5009273;28;20694;-46
2023/05/05 10:12:45;;;;;;;7.65;2.25;;;;;;;11.00;67.97;101985.06;4989675;28;20200;-44
2023/05/05 10:15:13;;;;;;;9.05;2.17;;;;;;;11.17;68.45;101966.78;5009907;28;20184;-45
2023/05/05 10:17:48;;;;;;;5.55;2.17;;;;;;;11.23;68.95;101965.78;5009132;28;20267;-45
2023/05/05 10:20:15;;;;;;;8.45;2.08;;;;;;;11.50;68.98;101973.22;5008104;28;20562;-44
2023/05/05 10:22:51;;;;;;;7.80;2.38;;;;;;;11.65;68.33;101942.41;5007909;28;20620;-45
2023/05/05 10:25:29;;;;;;;4.00;2.15;;;;;;;11.64;67.92;101935.28;5009865;28;20669;-43
2023/05/05 10:27:58;;;;;;;4.93;1.90;;;;;;;11.49;67.58;101936.53;5006969;28;20489;-43
2023/05/05 10:30:31;;;;;;;11.55;2.22;;;;;;;11.39;67.80;101932.34;5009466;28;20195;-43
2023/05/05 10:33:28;;;;;;;6.22;2.17;;;;;;;11.20;67.72;101922.94;5008796;28;20212;-44
2023/05/05 10:35:59;;;;;;;7.07;2.40;;;;;;;11.35;67.50;101930.63;5008359;28;20252;-42
2023/05/05 10:38:28;;;;;;;9.73;2.22;;;;;;;11.67;67.44;101923.56;5006774;28;20188;-42
2023/05/05 10:40:54;;;;;;;7.82;2.10;;;;;;;11.34;67.16;101902.03;5008697;28;20295;-42
2023/05/05 10:43:20;;;;;;;6.30;2.00;;;;;;;11.29;67.03;101895.91;5008841;28;20173;-48
2023/05/05 10:45:45;;;;;;;7.55;1.92;;;;;;;11.29;67.16;101944.19;5009096;28;20959;-48
2023/05/05 10:48:21;;;;;;;7.10;1.90;;;;;;;11.79;66.89;101909.84;5007732;28;20185;-48
2023/05/05 10:50:52;;;;;;;4.78;2.13;;;;;;;11.29;65.97;101912.88;5008150;28;20180;-47
2023/05/05 10:53:22;;;;;;;8.70;2.20;;;;;;;11.32;65.92;101907.41;4974376;28;20201;-48
2023/05/05 10:56:25;;;;;;;7.07;2.08;;;;;;;10.94;66.81;101924.41;5008832;28;20651;-48
2023/05/05 10:58:51;;;;;;;6.60;2.38;;;;;;;11.24;66.71;101921.94;5008620;28;20191;-46
2023/05/05 11:01:32;;;;;;;4.93;1.98;;;;;;;11.65;66.63;101906.63;5008837;28;20207;-47
2023/05/05 11:04:16;;;;;;;6.85;1.92;;;;;;;11.62;66.34;101912.09;5006275;28;20275;-45
2023/05/05 11:07:21;;;;;;;10.57;1.90;;;;;;;11.55;65.63;101912.22;5008335;28;20246;-48
2023/05/05 11:10:00;;;;;;;9.48;2.28;;;;;;;11.59;65.51;101890.66;4933095;29;20290;-48
2023/05/05 11:12:26;;;;;;;6.47;1.88;;;;;;;11.41;65.63;101900.94;4933142;29;20530;-47
2023/05/05 11:15:23;;;;;;;6.93;1.48;;;;;;;12.05;65.68;101902.94;4970784;28;20353;-47
2023/05/05 11:17:48;;;;;;;6.88;1.80;;;;;;;11.87;65.28;101899.81;5006418;28;20632;-47
2023/05/05 11:20:15;;;;;;;8.38;2.25;;;;;;;11.32;64.97;101877.03;5007795;28;20308;-47
2023/05/05 11:23:03;;;;;;;10.93;2.13;;;;;;;11.22;65.36;101884.44;4990995;28;20695;-45
2023/05/05 11:25:35;;;;;;;6.40;2.50;;;;;;;11.22;65.34;101891.59;4998392;28;20204;-42
2023/05/05 11:28:07;;;;;;;7.50;1.85;;;;;;;11.30;65.69;101882.44;5000453;28;20631;-45
2023/05/05 11:30:34;;;;;;;8.07;2.00;;;;;;;10.83;65.88;101871.03;5007490;28;20195;-44
2023/05/05 11:33:23;;;;;;;9.93;2.30;;;;;;;10.59;66.86;101867.09;5008954;28;20212;-45
2023/05/05 11:36:13;;;;;;;8.88;1.85;;;;;;;10.42;67.08;101875.47;5009122;28;20199;-45
2023/05/05 11:39:07;;;;;;;10.50;2.40;;;;;;;10.91;67.04;101878.88;4990990;28;20303;-43